createdAt,value
2022-09-03T00:00:41.641Z,17.48
2022-09-03T00:03:21.375Z,17.23
2022-09-03T00:05:57.849Z,18.02
2022-09-03T00:08:34.747Z,17.80
2022-09-03T00:11:06.122Z,19.13
2022-09-03T00:13:39.770Z,17.95
2022-09-03T00:16:16.153Z,19.20
2022-09-03T00:18:49.791Z,21.55
2022-09-03T00:21:33.060Z,21.50
2022-09-03T00:24:07.051Z,19.33
2022-09-03T00:26:48.997Z,19.13
2022-09-03T00:29:24.306Z,17.65
2022-09-03T00:32:01.098Z,16.70
2022-09-03T00:34:35.322Z,16.60
2022-09-03T00:37:05.575Z,15.18
2022-09-03T00:39:37.983Z,15.27
2022-09-03T00:42:33.685Z,16.20
2022-09-03T00:45:17.315Z,14.48
2022-09-03T00:48:01.067Z,15.98
2022-09-03T00:50:42.608Z,15.40
2022-09-03T00:53:18.587Z,14.20
2022-09-03T00:55:58.556Z,14.20
2022-09-03T00:58:55.660Z,15.70
2022-09-03T01:01:31.597Z,15.52
2022-09-03T01:04:14.371Z,15.25
2022-09-03T01:06:54.116Z,15.27
2022-09-03T01:09:40.082Z,14.45
2022-09-03T01:12:17.427Z,15.80
2022-09-03T01:14:59.396Z,15.30
2022-09-03T01:17:38.399Z,15.60
2022-09-03T01:20:42.395Z,14.93
2022-09-03T01:23:54.787Z,14.63
2022-09-03T01:26:45.402Z,15.38
2022-09-03T01:29:26.732Z,16.77
2022-09-03T01:32:08.221Z,16.40
2022-09-03T01:34:50.824Z,15.98
2022-09-03T01:37:29.647Z,16.35
2022-09-03T01:40:09.525Z,17.13
2022-09-03T01:42:50.000Z,17.58
2022-09-03T01:45:32.831Z,16.58
2022-09-03T01:48:16.753Z,17.40
2022-09-03T01:50:57.827Z,16.60
2022-09-03T01:53:42.523Z,17.60
2022-09-03T01:56:23.948Z,17.35
2022-09-03T01:59:02.528Z,17.35
2022-09-03T02:01:38.480Z,17.08
2022-09-03T02:04:18.183Z,17.45
2022-09-03T02:06:49.813Z,17.38
2022-09-03T02:09:20.612Z,16.40
2022-09-03T02:11:55.801Z,17.20
2022-09-03T02:14:27.861Z,17.50
2022-09-03T02:17:01.858Z,17.60
2022-09-03T02:22:02.456Z,15.98
2022-09-03T02:24:32.655Z,16.55
2022-09-03T02:27:02.673Z,17.48
2022-09-03T02:29:33.866Z,17.02
2022-09-03T02:32:05.284Z,16.48
2022-09-03T02:34:35.367Z,16.05
2022-09-03T02:37:14.107Z,16.05
2022-09-03T02:39:43.962Z,16.90
2022-09-03T02:42:15.744Z,17.00
2022-09-03T02:44:49.831Z,16.40
2022-09-03T02:47:21.479Z,16.77
2022-09-03T02:49:51.463Z,16.30
2022-09-03T02:52:21.388Z,16.13
2022-09-03T02:54:51.393Z,16.92
2022-09-03T02:57:27.305Z,15.60
2022-09-03T02:59:57.723Z,16.50
2022-09-03T03:02:29.057Z,15.82
2022-09-03T03:04:59.074Z,15.52
2022-09-03T03:07:29.472Z,16.60
2022-09-03T03:09:59.900Z,15.40
2022-09-03T03:12:31.336Z,17.20
2022-09-03T03:15:03.012Z,15.50
2022-09-03T03:17:35.558Z,16.27
2022-09-03T03:20:05.933Z,15.95
2022-09-03T03:22:35.894Z,16.65
2022-09-03T03:25:06.641Z,18.73
2022-09-03T03:27:42.402Z,16.90
2022-09-03T03:30:14.607Z,17.48
2022-09-03T03:32:46.120Z,17.27
2022-09-03T03:35:16.440Z,17.27
2022-09-03T03:37:46.402Z,16.10
2022-09-03T03:40:16.775Z,16.38
2022-09-03T03:42:46.827Z,17.55
2022-09-03T03:45:16.919Z,17.67
2022-09-03T03:47:48.470Z,17.45
2022-09-03T03:50:18.466Z,17.65
2022-09-03T03:52:48.839Z,17.92
2022-09-03T03:55:18.716Z,15.85
2022-09-03T03:57:48.707Z,15.93
2022-09-03T04:00:18.876Z,16.85
2022-09-03T04:02:50.678Z,17.15
2022-09-03T04:05:23.198Z,15.73
2022-09-03T04:07:53.900Z,17.38
2022-09-03T04:10:25.085Z,16.48
2022-09-03T04:12:56.378Z,16.73
2022-09-03T04:15:28.545Z,16.65
2022-09-03T04:18:00.665Z,16.88
2022-09-03T04:20:30.983Z,16.02
2022-09-03T04:23:02.244Z,15.30
2022-09-03T04:25:32.622Z,16.38
2022-09-03T04:28:03.919Z,16.17
2022-09-03T04:30:34.066Z,15.20
2022-09-03T04:33:05.604Z,15.90
2022-09-03T04:35:35.969Z,16.40
2022-09-03T04:38:07.556Z,15.63
2022-09-03T04:40:37.490Z,16.25
2022-09-03T04:43:08.579Z,15.82
2022-09-03T04:45:38.687Z,16.80
2022-09-03T04:48:12.023Z,14.60
2022-09-03T04:50:42.115Z,15.02
2022-09-03T04:53:12.334Z,14.98
2022-09-03T04:55:43.392Z,15.15
2022-09-03T04:58:13.574Z,14.02
2022-09-03T05:00:43.594Z,14.45
2022-09-03T05:03:15.063Z,15.68
2022-09-03T05:05:52.628Z,14.38
2022-09-03T05:08:23.283Z,15.25
2022-09-03T05:11:00.155Z,13.63
2022-09-03T05:13:30.259Z,14.25
2022-09-03T05:16:02.243Z,13.45
2022-09-03T05:18:35.841Z,15.30
2022-09-03T05:21:07.750Z,14.05
2022-09-03T05:23:39.277Z,13.95
2022-09-03T05:26:11.589Z,13.25
2022-09-03T05:28:43.504Z,13.35
2022-09-03T05:31:15.205Z,13.50
2022-09-03T05:33:48.502Z,13.82
2022-09-03T05:36:20.392Z,14.23
2022-09-03T05:38:51.291Z,14.40
2022-09-03T05:41:23.086Z,15.15
2022-09-03T05:43:56.002Z,15.05
2022-09-03T05:46:31.912Z,15.80
2022-09-03T05:49:07.390Z,14.57
2022-09-03T05:51:39.539Z,13.48
2022-09-03T05:54:10.354Z,14.45
2022-09-03T05:56:42.576Z,13.38
2022-09-03T05:59:13.889Z,13.52
2022-09-03T06:01:51.660Z,13.20
2022-09-03T06:04:25.188Z,11.85
2022-09-03T06:06:55.384Z,12.52
2022-09-03T06:09:25.380Z,11.93
2022-09-03T06:11:57.249Z,12.10
2022-09-03T06:14:27.393Z,12.05
2022-09-03T06:16:57.380Z,11.63
2022-09-03T06:19:28.862Z,11.50
2022-09-03T06:21:58.963Z,11.35
2022-09-03T06:24:29.806Z,11.02
2022-09-03T06:26:59.863Z,11.35
2022-09-03T06:29:29.905Z,11.63
2022-09-03T06:32:05.086Z,10.45
2022-09-03T06:34:36.456Z,10.27
2022-09-03T06:37:06.464Z,12.10
2022-09-03T06:39:36.568Z,11.38
2022-09-03T06:42:06.976Z,11.40
2022-09-03T06:44:37.025Z,10.05
2022-09-03T06:47:07.166Z,9.45
2022-09-03T06:49:38.835Z,9.77
2022-09-03T06:52:09.236Z,10.57
2022-09-03T06:54:40.794Z,10.57
2022-09-03T06:57:11.100Z,11.50
2022-09-03T06:59:41.172Z,11.20
2022-09-03T07:02:11.478Z,10.85
2022-09-03T07:04:43.472Z,10.75
2022-09-03T07:07:14.102Z,10.82
2022-09-03T07:09:47.706Z,10.75
2022-09-03T07:12:19.356Z,10.93
2022-09-03T07:14:51.097Z,10.70
2022-09-03T07:17:21.262Z,11.40
2022-09-03T07:19:52.808Z,11.00
2022-09-03T07:22:22.711Z,11.60
2022-09-03T07:25:02.048Z,11.05
2022-09-03T07:27:32.062Z,10.68
2022-09-03T07:30:03.521Z,11.93
2022-09-03T07:32:35.015Z,11.80
2022-09-03T07:35:07.381Z,13.25
2022-09-03T07:37:38.524Z,12.18
2022-09-03T07:40:10.046Z,11.63
2022-09-03T07:42:40.520Z,11.18
2022-09-03T07:45:12.492Z,12.32
2022-09-03T07:47:48.713Z,11.23
2022-09-03T07:50:20.802Z,12.20
2022-09-03T07:52:51.156Z,12.10
2022-09-03T07:55:21.289Z,12.13
2022-09-03T07:57:51.648Z,12.18
2022-09-03T08:00:21.929Z,11.50
2022-09-03T08:02:54.199Z,11.60
2022-09-03T08:05:27.667Z,10.45
2022-09-03T08:07:58.004Z,11.15
2022-09-03T08:10:31.397Z,11.32
2022-09-03T08:13:01.667Z,10.20
2022-09-03T08:15:31.839Z,9.65
2022-09-03T08:18:03.413Z,11.13
2022-09-03T08:20:35.536Z,9.57
2022-09-03T08:23:05.731Z,9.55
2022-09-03T08:25:35.788Z,10.82
2022-09-03T08:28:05.778Z,8.45
2022-09-03T08:30:36.125Z,7.97
2022-09-03T08:33:08.551Z,8.75
2022-09-03T08:35:40.106Z,9.52
2022-09-03T08:38:10.206Z,8.75
2022-09-03T08:40:42.784Z,9.13
2022-09-03T08:43:18.818Z,9.27
2022-09-03T08:45:49.060Z,9.90
2022-09-03T08:48:26.074Z,9.20
2022-09-03T08:51:01.726Z,8.95
2022-09-03T08:53:42.138Z,9.57
2022-09-03T08:56:16.124Z,9.98
2022-09-03T08:58:46.317Z,8.85
2022-09-03T09:01:27.625Z,8.98
2022-09-03T09:04:06.905Z,10.65
2022-09-03T09:06:45.091Z,10.98
2022-09-03T09:09:29.526Z,9.48
2022-09-03T09:12:18.046Z,9.20
2022-09-03T09:15:01.692Z,10.45
2022-09-03T09:17:47.175Z,10.73
2022-09-03T09:20:25.316Z,11.25
2022-09-03T09:23:02.422Z,9.45
2022-09-03T09:25:33.835Z,10.35
2022-09-03T09:28:08.062Z,11.23
2022-09-03T09:30:38.859Z,10.95
2022-09-03T09:33:08.833Z,10.57
2022-09-03T09:35:41.906Z,11.02
2022-09-03T09:38:14.093Z,11.32
2022-09-03T09:40:47.244Z,11.15
2022-09-03T09:43:21.108Z,10.70
2022-09-03T09:45:53.561Z,9.85
2022-09-03T09:48:31.243Z,11.68
2022-09-03T09:51:10.309Z,11.20
2022-09-03T09:53:42.059Z,10.90
2022-09-03T09:56:22.698Z,10.90
2022-09-03T09:59:03.678Z,10.82
2022-09-03T10:01:33.978Z,13.23
2022-09-03T10:04:11.857Z,12.88
2022-09-03T10:06:57.293Z,12.45
2022-09-03T10:09:30.962Z,11.90
2022-09-03T10:12:14.551Z,11.45
2022-09-03T10:14:51.353Z,11.40
2022-09-03T10:17:37.092Z,11.43
2022-09-03T10:20:30.086Z,11.25
2022-09-03T10:23:15.309Z,11.50
2022-09-03T10:28:26.885Z,11.05
2022-09-03T10:31:19.216Z,11.35
2022-09-03T10:33:55.466Z,11.65
2022-09-03T10:36:30.082Z,11.52
2022-09-03T10:39:07.081Z,11.10
2022-09-03T10:41:55.991Z,10.57
2022-09-03T10:44:43.945Z,11.10
2022-09-03T10:47:35.375Z,11.10
2022-09-03T10:50:16.295Z,13.05
2022-09-03T10:53:07.050Z,11.38
2022-09-03T10:55:48.166Z,11.82
2022-09-03T10:58:34.434Z,11.23
2022-09-03T11:01:11.986Z,10.07
2022-09-03T11:03:49.137Z,10.63
2022-09-03T11:06:24.719Z,11.73
2022-09-03T11:09:05.848Z,10.82
2022-09-03T11:11:41.795Z,10.05
2022-09-03T11:14:17.218Z,10.15
2022-09-03T11:16:53.883Z,10.93
2022-09-03T11:19:35.273Z,9.65
2022-09-03T11:22:08.117Z,11.50
2022-09-03T11:24:41.167Z,10.48
2022-09-03T11:27:26.327Z,9.82
2022-09-03T11:30:03.868Z,9.85
2022-09-03T11:32:55.905Z,10.35
2022-09-03T11:35:29.082Z,9.73
2022-09-03T11:38:02.132Z,10.55
2022-09-03T11:40:35.501Z,10.10
2022-09-03T11:45:44.604Z,10.00
2022-09-03T11:48:36.079Z,11.38
2022-09-03T11:51:18.956Z,11.55
2022-09-03T11:53:57.058Z,9.35
2022-09-03T11:56:28.051Z,11.38
2022-09-03T11:59:07.250Z,10.30
2022-09-03T12:01:41.119Z,9.95
2022-09-03T12:04:17.056Z,10.93
2022-09-03T12:07:05.748Z,9.60
2022-09-03T12:09:56.337Z,10.90
2022-09-03T12:12:40.865Z,9.95
2022-09-03T12:15:20.052Z,8.90
2022-09-03T12:18:19.155Z,8.75
2022-09-03T12:21:01.150Z,9.55
2022-09-03T12:23:34.351Z,9.43
2022-09-03T12:26:07.211Z,9.40
2022-09-03T12:28:41.473Z,10.05
2022-09-03T12:31:25.413Z,9.57
2022-09-03T12:34:00.221Z,9.45
2022-09-03T12:36:38.623Z,8.23
2022-09-03T12:39:13.247Z,10.25
2022-09-03T12:41:57.248Z,9.23
2022-09-03T12:44:29.708Z,8.95
2022-09-03T12:50:07.248Z,9.82
2022-09-03T12:52:41.269Z,9.00
2022-09-03T12:55:27.117Z,8.45
2022-09-03T12:58:04.539Z,9.45
2022-09-03T13:00:41.059Z,9.18
2022-09-03T13:03:17.896Z,8.45
2022-09-03T13:05:53.605Z,8.30
2022-09-03T13:08:27.507Z,8.35
2022-09-03T13:11:00.891Z,9.13
2022-09-03T13:16:29.849Z,8.45
2022-09-03T13:19:07.902Z,7.97
2022-09-03T13:21:46.120Z,8.60
2022-09-03T13:24:41.401Z,8.23
2022-09-03T13:27:23.851Z,10.45
2022-09-03T13:30:05.997Z,11.48
2022-09-03T13:32:59.476Z,11.65
2022-09-03T13:35:36.036Z,12.05
2022-09-03T13:38:19.759Z,10.02
2022-09-03T13:40:55.974Z,10.77
2022-09-03T13:43:33.615Z,11.32
2022-09-03T13:46:08.619Z,10.30
2022-09-03T13:48:59.206Z,9.93
2022-09-03T13:51:32.144Z,7.03
2022-09-03T13:54:13.178Z,6.20
2022-09-03T13:56:54.736Z,5.10
2022-09-03T13:59:35.155Z,5.63
2022-09-03T14:02:24.269Z,4.47
2022-09-03T14:05:04.774Z,5.30
2022-09-03T14:07:54.381Z,4.72
2022-09-03T14:10:40.440Z,5.18
2022-09-03T14:13:21.528Z,4.43
2022-09-03T14:15:59.259Z,4.90
2022-09-03T14:18:40.386Z,4.93
2022-09-03T14:21:17.350Z,4.97
2022-09-03T14:23:54.599Z,4.50
2022-09-03T14:26:39.217Z,4.82
2022-09-03T14:29:17.532Z,4.97
2022-09-03T14:32:24.568Z,5.22
2022-09-03T14:35:19.420Z,5.38
2022-09-03T14:38:23.787Z,5.50
2022-09-03T14:41:06.262Z,6.03
2022-09-03T14:44:03.080Z,5.15
2022-09-03T14:46:49.990Z,5.55
2022-09-03T14:49:37.244Z,5.78
2022-09-03T14:52:30.372Z,5.57
2022-09-03T14:55:16.192Z,6.10
2022-09-03T14:58:04.727Z,6.18
2022-09-03T15:00:48.133Z,5.50
2022-09-03T15:03:30.445Z,6.40
2022-09-03T15:06:10.640Z,5.60
2022-09-03T15:08:54.830Z,5.88
2022-09-03T15:11:27.799Z,5.35
2022-09-03T15:14:10.619Z,5.70
2022-09-03T15:16:54.793Z,5.38
2022-09-03T15:19:57.356Z,5.28
2022-09-03T15:22:39.014Z,6.57
2022-09-03T15:25:17.523Z,6.90
2022-09-03T15:28:00.490Z,6.18
2022-09-03T15:30:36.586Z,7.43
2022-09-03T15:33:18.549Z,8.02
2022-09-03T15:36:04.699Z,8.98
2022-09-03T15:38:46.424Z,9.88
2022-09-03T15:41:29.514Z,9.85
2022-09-03T15:44:01.225Z,9.83
2022-09-03T15:46:46.540Z,10.10
2022-09-03T15:49:30.349Z,10.70
2022-09-03T15:52:30.088Z,12.45
2022-09-03T15:55:08.600Z,13.40
2022-09-03T15:57:46.639Z,11.82
2022-09-03T16:00:21.529Z,11.60
2022-09-03T16:03:00.975Z,10.48
2022-09-03T16:05:43.444Z,10.73
2022-09-03T16:08:23.640Z,8.80
2022-09-03T16:11:04.912Z,8.30
2022-09-03T16:13:48.872Z,7.55
2022-09-03T16:19:04.491Z,8.13
2022-09-03T16:21:45.468Z,6.57
2022-09-03T16:24:22.391Z,6.88
2022-09-03T16:26:57.787Z,8.27
2022-09-03T16:29:31.107Z,7.55
2022-09-03T16:32:19.541Z,7.07
2022-09-03T16:35:04.523Z,7.00
2022-09-03T16:37:46.000Z,6.35
2022-09-03T16:40:26.474Z,6.30
2022-09-03T16:43:23.567Z,7.38
2022-09-03T16:46:08.390Z,6.93
2022-09-03T16:48:50.317Z,7.82
2022-09-03T16:51:30.004Z,7.55
2022-09-03T16:54:14.818Z,6.63
2022-09-03T16:56:55.650Z,6.60
2022-09-03T16:59:44.621Z,6.22
2022-09-03T17:02:42.207Z,6.22
2022-09-03T17:05:30.955Z,6.20
2022-09-03T17:08:17.011Z,6.40
2022-09-03T17:10:55.669Z,7.05
2022-09-03T17:13:55.084Z,6.55
2022-09-03T17:16:39.645Z,5.80
2022-09-03T17:19:15.711Z,7.05
2022-09-03T17:21:54.284Z,7.03
2022-09-03T17:24:47.878Z,6.10
2022-09-03T17:27:41.602Z,6.60
2022-09-03T17:30:34.243Z,6.28
2022-09-03T17:33:36.356Z,6.85
2022-09-03T17:36:14.128Z,7.43
2022-09-03T17:39:18.147Z,7.05
2022-09-03T17:41:54.064Z,5.30
2022-09-03T17:44:44.534Z,6.82
2022-09-03T17:47:35.672Z,6.97
2022-09-03T17:50:15.996Z,6.82
2022-09-03T17:52:49.712Z,7.18
2022-09-03T17:55:31.917Z,6.65
2022-09-03T17:58:14.075Z,6.90
2022-09-03T18:00:53.568Z,6.85
2022-09-03T18:03:28.573Z,6.60
2022-09-03T18:06:04.358Z,7.32
2022-09-03T18:08:44.808Z,7.43
2022-09-03T18:11:19.843Z,7.20
2022-09-03T18:13:59.463Z,7.43
2022-09-03T18:16:33.906Z,7.18
2022-09-03T18:19:17.961Z,6.97
2022-09-03T18:22:08.279Z,7.18
2022-09-03T18:25:02.303Z,7.15
2022-09-03T18:30:39.972Z,7.68
2022-09-03T18:33:29.042Z,7.57
2022-09-03T18:36:17.885Z,6.95
2022-09-03T18:39:05.155Z,6.68
2022-09-03T18:42:15.619Z,7.75
2022-09-03T18:45:22.184Z,7.78
2022-09-03T18:48:22.947Z,7.03
2022-09-03T18:51:22.129Z,6.70
2022-09-03T18:54:25.987Z,7.47
2022-09-03T18:57:13.791Z,7.13
2022-09-03T19:00:20.152Z,6.80
2022-09-03T19:03:24.130Z,7.10
2022-09-03T19:06:24.395Z,6.63
2022-09-03T19:09:21.917Z,6.63
2022-09-03T19:12:22.872Z,7.00
2022-09-03T19:15:18.219Z,8.20
2022-09-03T19:18:38.343Z,7.60
2022-09-03T19:21:38.355Z,7.93
2022-09-03T19:24:27.689Z,7.78
2022-09-03T19:27:52.917Z,6.53
2022-09-03T19:30:42.806Z,7.22
2022-09-03T19:33:45.177Z,7.30
2022-09-03T19:36:43.719Z,7.47
2022-09-03T19:39:47.773Z,6.45
2022-09-03T19:42:44.664Z,6.75
2022-09-03T19:45:42.023Z,7.07
2022-09-03T19:48:38.441Z,6.60
2022-09-03T19:51:33.207Z,5.65
2022-09-03T19:54:24.652Z,7.47
2022-09-03T19:57:15.455Z,6.50
2022-09-03T20:00:06.536Z,5.85
2022-09-03T20:02:54.528Z,6.13
2022-09-03T20:05:42.809Z,6.93
2022-09-03T20:08:34.259Z,6.03
2022-09-03T20:11:07.126Z,6.05
2022-09-03T20:13:54.813Z,6.07
2022-09-03T20:16:31.192Z,6.25
2022-09-03T20:19:08.117Z,5.93
2022-09-03T20:21:44.594Z,5.35
2022-09-03T20:24:28.447Z,6.10
2022-09-03T20:29:55.814Z,5.65
2022-09-03T20:32:45.393Z,6.47
2022-09-03T20:35:23.706Z,6.03
2022-09-03T20:38:03.010Z,5.82
2022-09-03T20:40:45.863Z,5.97
2022-09-03T20:44:00.206Z,5.82
2022-09-03T20:46:47.780Z,5.90
2022-09-03T20:49:31.354Z,5.28
2022-09-03T20:52:07.366Z,6.47
2022-09-03T20:54:39.449Z,5.35
2022-09-03T20:57:22.268Z,5.40
2022-09-03T21:00:05.675Z,5.22
2022-09-03T21:02:51.559Z,6.07
2022-09-03T21:05:27.815Z,5.72
2022-09-03T21:08:09.017Z,5.18
2022-09-03T21:10:49.175Z,5.50
2022-09-03T21:13:32.788Z,5.18
2022-09-03T21:16:24.345Z,5.90
2022-09-03T21:19:04.654Z,4.93
2022-09-03T21:21:48.253Z,4.70
2022-09-03T21:24:22.729Z,5.18
2022-09-03T21:27:08.346Z,4.97
2022-09-03T21:29:44.397Z,5.15
2022-09-03T21:32:20.004Z,4.95
2022-09-03T21:34:57.771Z,4.53
2022-09-03T21:37:28.263Z,3.95
2022-09-03T21:39:59.485Z,4.47
2022-09-03T21:42:36.567Z,4.85
2022-09-03T21:45:12.423Z,4.97
2022-09-03T21:47:46.134Z,4.88
2022-09-03T21:52:55.447Z,4.20
2022-09-03T21:55:43.115Z,4.90
2022-09-03T21:58:24.010Z,4.15
2022-09-03T22:01:02.224Z,5.13
2022-09-03T22:03:32.211Z,4.70
2022-09-03T22:06:10.728Z,5.28
2022-09-03T22:08:47.401Z,4.53
2022-09-03T22:11:24.212Z,4.47
2022-09-03T22:14:05.144Z,4.03
2022-09-03T22:16:40.283Z,4.88
2022-09-03T22:19:11.002Z,4.28
2022-09-03T22:21:59.899Z,4.40
2022-09-03T22:24:40.623Z,4.38
2022-09-03T22:27:18.368Z,4.25
2022-09-03T22:29:58.772Z,4.40
2022-09-03T22:32:36.506Z,4.55
2022-09-03T22:35:28.437Z,4.30
2022-09-03T22:38:14.159Z,4.32
2022-09-03T22:40:52.333Z,4.53
2022-09-03T22:43:37.911Z,3.92
2022-09-03T22:46:13.693Z,3.67
2022-09-03T22:49:02.719Z,4.40
2022-09-03T22:51:47.812Z,4.13
2022-09-03T22:54:26.050Z,3.83
2022-09-03T22:56:59.326Z,3.83
2022-09-03T22:59:34.493Z,4.68
2022-09-03T23:02:11.708Z,4.03
2022-09-03T23:04:50.518Z,4.25
2022-09-03T23:07:26.765Z,4.40
2022-09-03T23:10:03.635Z,4.45
2022-09-03T23:12:40.210Z,3.88
2022-09-03T23:15:14.443Z,3.72
2022-09-03T23:17:48.391Z,3.97
2022-09-03T23:22:59.552Z,4.40
2022-09-03T23:25:36.921Z,4.03
2022-09-03T23:28:12.124Z,3.95
2022-09-03T23:30:42.379Z,3.40
2022-09-03T23:33:12.813Z,4.00
2022-09-03T23:35:49.782Z,4.28
2022-09-03T23:38:26.916Z,4.40
2022-09-03T23:41:04.668Z,4.07
2022-09-03T23:44:04.162Z,4.30
2022-09-03T23:46:41.199Z,3.63
2022-09-03T23:49:29.003Z,4.53
2022-09-03T23:52:24.200Z,4.95
2022-09-03T23:55:04.593Z,3.85
2022-09-03T23:57:40.337Z,4.00
